sensor_id;sensor_type;location;lat;lon;timestamp;temperature;humidity
18287;DHT22;9269;50.838;12.094;2024-01-07T00:00:40;5.10;71.00
18287;DHT22;9269;50.838;12.094;2024-01-07T00:03:09;5.30;71.10
18287;DHT22;9269;50.838;12.094;2024-01-07T00:05:41;5.10;71.20
18287;DHT22;9269;50.838;12.094;2024-01-07T00:08:16;5.10;71.20
18287;DHT22;9269;50.838;12.094;2024-01-07T00:10:48;5.10;71.00
18287;DHT22;9269;50.838;12.094;2024-01-07T00:13:26;5.10;70.90
18287;DHT22;9269;50.838;12.094;2024-01-07T00:43:18;4.50;70.80
18287;DHT22;9269;50.838;12.094;2024-01-07T00:50:07;4.50;71.00
18287;DHT22;9269;50.838;12.094;2024-01-07T00:52:53;4.40;70.90
18287;DHT22;9269;50.838;12.094;2024-01-07T00:55:40;4.60;71.10
18287;DHT22;9269;50.838;12.094;2024-01-07T00:58:19;4.50;71.00
18287;DHT22;9269;50.838;12.094;2024-01-07T01:01:03;4.60;71.10
18287;DHT22;9269;50.838;12.094;2024-01-07T01:03:35;4.50;71.00
18287;DHT22;9269;50.838;12.094;2024-01-07T01:06:06;4.60;71.10
18287;DHT22;9269;50.838;12.094;2024-01-07T01:08:44;4.80;71.00
18287;DHT22;9269;50.838;12.094;2024-01-07T01:11:18;4.60;71.10
18287;DHT22;9269;50.838;12.094;2024-01-07T01:13:52;4.50;70.90
18287;DHT22;9269;50.838;12.094;2024-01-07T01:16:31;4.70;70.90
18287;DHT22;9269;50.838;12.094;2024-01-07T01:19:09;4.70;71.00
18287;DHT22;9269;50.838;12.094;2024-01-07T01:21:40;4.70;71.00
18287;DHT22;9269;50.838;12.094;2024-01-07T01:24:15;4.60;70.90
18287;DHT22;9269;50.838;12.094;2024-01-07T01:26:45;4.70;70.90
18287;DHT22;9269;50.838;12.094;2024-01-07T01:29:22;4.50;70.80
18287;DHT22;9269;50.838;12.094;2024-01-07T01:32:02;4.60;70.90
18287;DHT22;9269;50.838;12.094;2024-01-07T01:34:48;4.80;70.80
18287;DHT22;9269;50.838;12.094;2024-01-07T01:37:36;4.60;70.90
18287;DHT22;9269;50.838;12.094;2024-01-07T01:40:21;4.70;70.90
18287;DHT22;9269;50.838;12.094;2024-01-07T01:42:55;4.50;71.00
18287;DHT22;9269;50.838;12.094;2024-01-07T01:45:41;4.60;70.90
18287;DHT22;9269;50.838;12.094;2024-01-07T01:48:29;4.70;70.90
18287;DHT22;9269;50.838;12.094;2024-01-07T01:51:17;4.40;64.40
18287;DHT22;9269;50.838;12.094;2024-01-07T01:54:06;4.40;70.80
18287;DHT22;9269;50.838;12.094;2024-01-07T01:56:40;4.40;70.80
18287;DHT22;9269;50.838;12.094;2024-01-07T01:59:18;4.30;70.80
18287;DHT22;9269;50.838;12.094;2024-01-07T02:02:05;4.20;70.80
18287;DHT22;9269;50.838;12.094;2024-01-07T02:04:53;4.30;70.90
18287;DHT22;9269;50.838;12.094;2024-01-07T02:07:30;4.20;70.70
18287;DHT22;9269;50.838;12.094;2024-01-07T02:10:18;4.10;70.80
18287;DHT22;9269;50.838;12.094;2024-01-07T02:13:08;4.30;70.90
18287;DHT22;9269;50.838;12.094;2024-01-07T02:15:47;4.20;70.80
18287;DHT22;9269;50.838;12.094;2024-01-07T02:18:18;4.30;64.40
18287;DHT22;9269;50.838;12.094;2024-01-07T02:20:52;4.20;70.70
18287;DHT22;9269;50.838;12.094;2024-01-07T02:23:24;4.10;70.80
18287;DHT22;9269;50.838;12.094;2024-01-07T02:26:13;4.20;70.70
18287;DHT22;9269;50.838;12.094;2024-01-07T02:28:49;4.20;70.70
18287;DHT22;9269;50.838;12.094;2024-01-07T02:31:27;4.20;64.40
18287;DHT22;9269;50.838;12.094;2024-01-07T02:34:15;4.20;70.80
18287;DHT22;9269;50.838;12.094;2024-01-07T02:37:03;4.20;64.50
18287;DHT22;9269;50.838;12.094;2024-01-07T02:39:34;4.10;64.30
18287;DHT22;9269;50.838;12.094;2024-01-07T02:42:05;4.10;70.70
18287;DHT22;9269;50.838;12.094;2024-01-07T02:44:47;3.90;64.50
18287;DHT22;9269;50.838;12.094;2024-01-07T02:47:35;4.00;70.80
18287;DHT22;9269;50.838;12.094;2024-01-07T02:50:22;4.10;70.70
18287;DHT22;9269;50.838;12.094;2024-01-07T02:53:10;3.90;64.30
18287;DHT22;9269;50.838;12.094;2024-01-07T02:55:53;3.90;63.80
18287;DHT22;9269;50.838;12.094;2024-01-07T02:58:35;4.00;64.00
18287;DHT22;9269;50.838;12.094;2024-01-07T03:01:16;4.00;64.10
18287;DHT22;9269;50.838;12.094;2024-01-07T03:03:50;3.90;64.30
18287;DHT22;9269;50.838;12.094;2024-01-07T03:06:26;4.00;63.50
18287;DHT22;9269;50.838;12.094;2024-01-07T03:09:07;3.80;63.80
18287;DHT22;9269;50.838;12.094;2024-01-07T03:11:41;3.80;64.00
18287;DHT22;9269;50.838;12.094;2024-01-07T03:14:14;4.00;63.50
18287;DHT22;9269;50.838;12.094;2024-01-07T03:16:49;3.90;63.80
18287;DHT22;9269;50.838;12.094;2024-01-07T03:19:18;3.70;63.90
18287;DHT22;9269;50.838;12.094;2024-01-07T03:21:57;3.80;63.70
18287;DHT22;9269;50.838;12.094;2024-01-07T03:24:28;3.80;64.00
18287;DHT22;9269;50.838;12.094;2024-01-07T03:27:01;3.70;63.70
18287;DHT22;9269;50.838;12.094;2024-01-07T03:29:46;3.70;63.70
18287;DHT22;9269;50.838;12.094;2024-01-07T03:32:22;3.70;63.20
18287;DHT22;9269;50.838;12.094;2024-01-07T03:34:58;3.80;63.40
18287;DHT22;9269;50.838;12.094;2024-01-07T03:37:38;3.90;63.50
18287;DHT22;9269;50.838;12.094;2024-01-07T03:40:10;3.80;63.50
18287;DHT22;9269;50.838;12.094;2024-01-07T03:42:43;3.80;63.10
18287;DHT22;9269;50.838;12.094;2024-01-07T03:45:19;3.60;63.30
18287;DHT22;9269;50.838;12.094;2024-01-07T03:48:05;3.90;62.90
18287;DHT22;9269;50.838;12.094;2024-01-07T03:50:41;3.70;63.00
18287;DHT22;9269;50.838;12.094;2024-01-07T03:53:15;3.80;63.00
18287;DHT22;9269;50.838;12.094;2024-01-07T03:56:03;3.90;62.90
18287;DHT22;9269;50.838;12.094;2024-01-07T03:58:35;3.90;62.50
18287;DHT22;9269;50.838;12.094;2024-01-07T04:01:17;3.80;62.30
18287;DHT22;9269;50.838;12.094;2024-01-07T04:04:05;3.60;62.70
18287;DHT22;9269;50.838;12.094;2024-01-07T04:06:53;3.50;62.90
18287;DHT22;9269;50.838;12.094;2024-01-07T04:09:35;3.60;62.70
18287;DHT22;9269;50.838;12.094;2024-01-07T04:12:22;3.60;62.70
18287;DHT22;9269;50.838;12.094;2024-01-07T04:15:05;3.40;62.30
18287;DHT22;9269;50.838;12.094;2024-01-07T04:17:54;3.50;62.80
18287;DHT22;9269;50.838;12.094;2024-01-07T04:20:29;3.50;62.40
18287;DHT22;9269;50.838;12.094;2024-01-07T04:23:04;3.50;62.40
18287;DHT22;9269;50.838;12.094;2024-01-07T04:25:41;3.60;62.70
18287;DHT22;9269;50.838;12.094;2024-01-07T04:28:31;3.50;62.00
18287;DHT22;9269;50.838;12.094;2024-01-07T04:31:09;3.70;62.40
18287;DHT22;9269;50.838;12.094;2024-01-07T04:33:47;3.70;62.10
18287;DHT22;9269;50.838;12.094;2024-01-07T04:36:25;3.50;62.60
18287;DHT22;9269;50.838;12.094;2024-01-07T04:39:03;3.50;62.30
18287;DHT22;9269;50.838;12.094;2024-01-07T04:41:42;3.50;61.90
18287;DHT22;9269;50.838;12.094;2024-01-07T04:44:20;3.40;61.80
18287;DHT22;9269;50.838;12.094;2024-01-07T04:46:55;3.40;62.40
18287;DHT22;9269;50.838;12.094;2024-01-07T04:49:32;3.50;62.20
18287;DHT22;9269;50.838;12.094;2024-01-07T04:52:21;3.50;62.00
18287;DHT22;9269;50.838;12.094;2024-01-07T04:54:54;3.50;61.90
18287;DHT22;9269;50.838;12.094;2024-01-07T04:57:25;3.50;61.60
18287;DHT22;9269;50.838;12.094;2024-01-07T05:00:04;3.40;61.60
18287;DHT22;9269;50.838;12.094;2024-01-07T05:02:42;3.40;61.70
18287;DHT22;9269;50.838;12.094;2024-01-07T05:05:19;3.30;61.90
18287;DHT22;9269;50.838;12.094;2024-01-07T05:07:54;3.30;61.40
18287;DHT22;9269;50.838;12.094;2024-01-07T05:10:26;3.50;61.40
18287;DHT22;9269;50.838;12.094;2024-01-07T05:12:58;3.20;61.30
18287;DHT22;9269;50.838;12.094;2024-01-07T05:15:50;3.30;61.40
18287;DHT22;9269;50.838;12.094;2024-01-07T05:18:29;3.20;61.50
18287;DHT22;9269;50.838;12.094;2024-01-07T05:21:05;3.10;61.00
18287;DHT22;9269;50.838;12.094;2024-01-07T05:23:39;3.30;61.30
18287;DHT22;9269;50.838;12.094;2024-01-07T05:26:17;3.00;61.10
18287;DHT22;9269;50.838;12.094;2024-01-07T05:28:53;3.10;61.50
18287;DHT22;9269;50.838;12.094;2024-01-07T05:31:31;3.10;61.00
18287;DHT22;9269;50.838;12.094;2024-01-07T05:34:07;3.10;61.20
18287;DHT22;9269;50.838;12.094;2024-01-07T05:36:46;3.10;61.20
18287;DHT22;9269;50.838;12.094;2024-01-07T05:39:20;3.10;61.30
18287;DHT22;9269;50.838;12.094;2024-01-07T05:41:55;3.00;61.50
18287;DHT22;9269;50.838;12.094;2024-01-07T05:44:36;3.10;61.20
18287;DHT22;9269;50.838;12.094;2024-01-07T05:47:24;3.10;61.20
18287;DHT22;9269;50.838;12.094;2024-01-07T05:50:03;3.00;60.80
18287;DHT22;9269;50.838;12.094;2024-01-07T05:52:37;3.00;60.80
18287;DHT22;9269;50.838;12.094;2024-01-07T05:55:18;3.10;60.70
18287;DHT22;9269;50.838;12.094;2024-01-07T05:58:00;3.10;60.60
18287;DHT22;9269;50.838;12.094;2024-01-07T06:00:38;3.00;60.60
18287;DHT22;9269;50.838;12.094;2024-01-07T06:03:26;3.10;60.60
18287;DHT22;9269;50.838;12.094;2024-01-07T06:06:06;2.90;60.40
18287;DHT22;9269;50.838;12.094;2024-01-07T06:08:43;2.80;60.60
18287;DHT22;9269;50.838;12.094;2024-01-07T06:11:22;2.90;60.60
18287;DHT22;9269;50.838;12.094;2024-01-07T06:14:01;2.70;60.70
18287;DHT22;9269;50.838;12.094;2024-01-07T06:16:32;2.90;60.60
18287;DHT22;9269;50.838;12.094;2024-01-07T06:19:13;2.80;60.50
18287;DHT22;9269;50.838;12.094;2024-01-07T06:21:51;3.00;60.40
18287;DHT22;9269;50.838;12.094;2024-01-07T06:24:38;3.00;60.70
18287;DHT22;9269;50.838;12.094;2024-01-07T06:27:15;2.90;60.50
18287;DHT22;9269;50.838;12.094;2024-01-07T06:30:05;3.00;59.90
18287;DHT22;9269;50.838;12.094;2024-01-07T06:32:38;2.80;59.90
18287;DHT22;9269;50.838;12.094;2024-01-07T06:35:20;2.80;59.90
18287;DHT22;9269;50.838;12.094;2024-01-07T06:37:57;2.70;60.20
18287;DHT22;9269;50.838;12.094;2024-01-07T06:40:28;2.80;59.80
18287;DHT22;9269;50.838;12.094;2024-01-07T06:43:07;2.80;60.10
18287;DHT22;9269;50.838;12.094;2024-01-07T06:45:46;2.80;59.60
18287;DHT22;9269;50.838;12.094;2024-01-07T06:48:17;2.60;59.70
18287;DHT22;9269;50.838;12.094;2024-01-07T06:51:05;2.80;60.00
18287;DHT22;9269;50.838;12.094;2024-01-07T06:53:44;2.50;60.00
18287;DHT22;9269;50.838;12.094;2024-01-07T06:56:17;2.80;60.20
18287;DHT22;9269;50.838;12.094;2024-01-07T06:58:53;2.70;60.10
18287;DHT22;9269;50.838;12.094;2024-01-07T07:01:37;2.60;60.00
18287;DHT22;9269;50.838;12.094;2024-01-07T07:04:25;2.60;59.70
18287;DHT22;9269;50.838;12.094;2024-01-07T07:07:01;2.50;59.80
18287;DHT22;9269;50.838;12.094;2024-01-07T07:09:34;2.50;59.70
18287;DHT22;9269;50.838;12.094;2024-01-07T07:12:11;2.60;60.00
18287;DHT22;9269;50.838;12.094;2024-01-07T07:14:44;2.50;60.10
18287;DHT22;9269;50.838;12.094;2024-01-07T07:17:26;2.70;59.40
18287;DHT22;9269;50.838;12.094;2024-01-07T07:19:58;2.60;59.10
18287;DHT22;9269;50.838;12.094;2024-01-07T07:22:35;2.60;59.40
18287;DHT22;9269;50.838;12.094;2024-01-07T07:25:21;2.50;59.30
18287;DHT22;9269;50.838;12.094;2024-01-07T07:27:57;2.40;59.20
18287;DHT22;9269;50.838;12.094;2024-01-07T07:30:28;2.50;59.10
18287;DHT22;9269;50.838;12.094;2024-01-07T07:33:02;2.50;59.00
18287;DHT22;9269;50.838;12.094;2024-01-07T07:35:50;2.30;58.40
18287;DHT22;9269;50.838;12.094;2024-01-07T07:38:23;2.40;58.20
18287;DHT22;9269;50.838;12.094;2024-01-07T07:40:55;2.40;58.00
18287;DHT22;9269;50.838;12.094;2024-01-07T07:43:33;2.10;58.20
18287;DHT22;9269;50.838;12.094;2024-01-07T07:46:06;2.30;58.10
18287;DHT22;9269;50.838;12.094;2024-01-07T07:48:46;2.20;58.60
18287;DHT22;9269;50.838;12.094;2024-01-07T07:51:23;2.20;58.50
18287;DHT22;9269;50.838;12.094;2024-01-07T07:53:57;2.20;58.30
18287;DHT22;9269;50.838;12.094;2024-01-07T07:56:35;2.30;58.10
18287;DHT22;9269;50.838;12.094;2024-01-07T07:59:16;2.20;58.30
18287;DHT22;9269;50.838;12.094;2024-01-07T08:02:01;2.30;58.30
18287;DHT22;9269;50.838;12.094;2024-01-07T08:04:42;2.10;57.90
18287;DHT22;9269;50.838;12.094;2024-01-07T08:07:16;2.40;58.20
18287;DHT22;9269;50.838;12.094;2024-01-07T08:09:50;2.30;57.90
18287;DHT22;9269;50.838;12.094;2024-01-07T08:12:38;2.30;57.80
18287;DHT22;9269;50.838;12.094;2024-01-07T08:15:19;2.30;57.50
18287;DHT22;9269;50.838;12.094;2024-01-07T08:18:07;2.30;57.70
18287;DHT22;9269;50.838;12.094;2024-01-07T08:20:55;2.40;57.90
18287;DHT22;9269;50.838;12.094;2024-01-07T08:23:38;2.30;57.60
18287;DHT22;9269;50.838;12.094;2024-01-07T08:26:18;2.40;57.90
18287;DHT22;9269;50.838;12.094;2024-01-07T08:28:57;2.50;58.10
18287;DHT22;9269;50.838;12.094;2024-01-07T08:31:47;2.30;57.50
18287;DHT22;9269;50.838;12.094;2024-01-07T08:34:20;2.30;58.00
18287;DHT22;9269;50.838;12.094;2024-01-07T08:36:53;2.10;57.80
18287;DHT22;9269;50.838;12.094;2024-01-07T08:39:31;2.20;57.30
18287;DHT22;9269;50.838;12.094;2024-01-07T08:42:01;2.20;57.80
18287;DHT22;9269;50.838;12.094;2024-01-07T08:44:32;2.20;57.50
18287;DHT22;9269;50.838;12.094;2024-01-07T08:47:14;2.10;57.70
18287;DHT22;9269;50.838;12.094;2024-01-07T08:49:52;2.20;57.50
18287;DHT22;9269;50.838;12.094;2024-01-07T08:52:22;2.00;57.60
18287;DHT22;9269;50.838;12.094;2024-01-07T08:54:53;2.20;58.00
18287;DHT22;9269;50.838;12.094;2024-01-07T08:57:26;2.20;58.40
18287;DHT22;9269;50.838;12.094;2024-01-07T09:00:01;2.10;57.90
18287;DHT22;9269;50.838;12.094;2024-01-07T09:02:38;2.00;58.20
18287;DHT22;9269;50.838;12.094;2024-01-07T09:05:18;2.20;58.40
18287;DHT22;9269;50.838;12.094;2024-01-07T09:07:58;2.20;58.10
18287;DHT22;9269;50.838;12.094;2024-01-07T09:10:38;2.10;57.90
18287;DHT22;9269;50.838;12.094;2024-01-07T09:13:19;2.10;58.10
18287;DHT22;9269;50.838;12.094;2024-01-07T09:15:52;2.10;57.70
18287;DHT22;9269;50.838;12.094;2024-01-07T09:18:32;2.00;58.00
18287;DHT22;9269;50.838;12.094;2024-01-07T09:21:10;2.30;57.80
18287;DHT22;9269;50.838;12.094;2024-01-07T09:23:44;2.20;57.50
18287;DHT22;9269;50.838;12.094;2024-01-07T09:26:29;2.20;57.20
18287;DHT22;9269;50.838;12.094;2024-01-07T09:29:17;2.30;57.30
18287;DHT22;9269;50.838;12.094;2024-01-07T09:32:06;2.20;56.80
18287;DHT22;9269;50.838;12.094;2024-01-07T09:34:55;2.10;56.90
18287;DHT22;9269;50.838;12.094;2024-01-07T09:37:28;2.00;56.90
18287;DHT22;9269;50.838;12.094;2024-01-07T09:39:59;2.10;57.30
18287;DHT22;9269;50.838;12.094;2024-01-07T09:42:36;2.00;57.00
18287;DHT22;9269;50.838;12.094;2024-01-07T09:45:12;2.10;57.20
18287;DHT22;9269;50.838;12.094;2024-01-07T09:47:44;2.20;57.00
18287;DHT22;9269;50.838;12.094;2024-01-07T09:50:24;2.00;57.00
18287;DHT22;9269;50.838;12.094;2024-01-07T09:53:13;2.20;56.90
18287;DHT22;9269;50.838;12.094;2024-01-07T09:56:07;2.10;56.70
18287;DHT22;9269;50.838;12.094;2024-01-07T09:58:48;2.00;56.70
18287;DHT22;9269;50.838;12.094;2024-01-07T10:01:19;2.00;56.50
18287;DHT22;9269;50.838;12.094;2024-01-07T10:03:51;1.90;56.30
18287;DHT22;9269;50.838;12.094;2024-01-07T10:06:29;2.00;56.30
18287;DHT22;9269;50.838;12.094;2024-01-07T10:09:08;1.90;56.20
18287;DHT22;9269;50.838;12.094;2024-01-07T10:11:40;1.80;55.70
18287;DHT22;9269;50.838;12.094;2024-01-07T10:14:14;1.80;55.30
18287;DHT22;9269;50.838;12.094;2024-01-07T10:16:54;1.90;55.50
18287;DHT22;9269;50.838;12.094;2024-01-07T10:19:37;1.80;55.60
18287;DHT22;9269;50.838;12.094;2024-01-07T10:22:23;1.90;55.30
18287;DHT22;9269;50.838;12.094;2024-01-07T10:25:10;1.80;55.50
18287;DHT22;9269;50.838;12.094;2024-01-07T10:27:47;1.80;55.40
18287;DHT22;9269;50.838;12.094;2024-01-07T10:30:20;1.90;55.50
18287;DHT22;9269;50.838;12.094;2024-01-07T10:32:57;1.80;55.70
18287;DHT22;9269;50.838;12.094;2024-01-07T10:35:52;1.80;55.60
18287;DHT22;9269;50.838;12.094;2024-01-07T10:38:36;1.90;55.30
18287;DHT22;9269;50.838;12.094;2024-01-07T10:41:24;1.80;55.70
18287;DHT22;9269;50.838;12.094;2024-01-07T10:43:56;1.70;55.20
18287;DHT22;9269;50.838;12.094;2024-01-07T10:46:29;1.80;55.30
18287;DHT22;9269;50.838;12.094;2024-01-07T10:49:07;1.70;55.30
18287;DHT22;9269;50.838;12.094;2024-01-07T10:51:41;1.60;55.10
18287;DHT22;9269;50.838;12.094;2024-01-07T10:54:24;1.60;55.30
18287;DHT22;9269;50.838;12.094;2024-01-07T10:57:09;1.70;55.40
18287;DHT22;9269;50.838;12.094;2024-01-07T10:59:50;1.70;55.10
18287;DHT22;9269;50.838;12.094;2024-01-07T11:02:29;1.80;55.00
18287;DHT22;9269;50.838;12.094;2024-01-07T11:05:14;1.70;54.60
18287;DHT22;9269;50.838;12.094;2024-01-07T11:07:55;1.70;54.80
18287;DHT22;9269;50.838;12.094;2024-01-07T11:10:44;1.70;54.80
18287;DHT22;9269;50.838;12.094;2024-01-07T11:13:33;1.60;54.20
18287;DHT22;9269;50.838;12.094;2024-01-07T11:16:12;1.60;54.70
18287;DHT22;9269;50.838;12.094;2024-01-07T11:19:00;1.60;54.00
18287;DHT22;9269;50.838;12.094;2024-01-07T11:21:39;1.60;53.60
18287;DHT22;9269;50.838;12.094;2024-01-07T11:27:28;1.50;53.60
18287;DHT22;9269;50.838;12.094;2024-01-07T11:30:07;1.50;53.80
18287;DHT22;9269;50.838;12.094;2024-01-07T11:32:45;1.50;53.90
18287;DHT22;9269;50.838;12.094;2024-01-07T11:35:54;1.60;53.80
18287;DHT22;9269;50.838;12.094;2024-01-07T11:38:36;1.50;53.40
18287;DHT22;9269;50.838;12.094;2024-01-07T11:41:13;1.70;53.70
18287;DHT22;9269;50.838;12.094;2024-01-07T11:43:55;1.60;53.60
18287;DHT22;9269;50.838;12.094;2024-01-07T11:46:30;1.70;53.60
18287;DHT22;9269;50.838;12.094;2024-01-07T11:49:08;1.50;53.20
18287;DHT22;9269;50.838;12.094;2024-01-07T11:51:45;1.40;52.90
18287;DHT22;9269;50.838;12.094;2024-01-07T11:54:29;1.70;52.70
18287;DHT22;9269;50.838;12.094;2024-01-07T11:57:14;1.60;52.50
18287;DHT22;9269;50.838;12.094;2024-01-07T11:59:54;1.40;52.50
18287;DHT22;9269;50.838;12.094;2024-01-07T12:02:28;1.40;52.20
18287;DHT22;9269;50.838;12.094;2024-01-07T12:05:10;1.50;52.10
18287;DHT22;9269;50.838;12.094;2024-01-07T12:08:00;1.70;52.60
18287;DHT22;9269;50.838;12.094;2024-01-07T12:10:42;1.60;52.40
18287;DHT22;9269;50.838;12.094;2024-01-07T12:13:30;1.50;52.00
18287;DHT22;9269;50.838;12.094;2024-01-07T12:16:08;1.60;51.70
18287;DHT22;9269;50.838;12.094;2024-01-07T12:18:57;1.60;51.70
18287;DHT22;9269;50.838;12.094;2024-01-07T12:21:45;1.60;51.50
18287;DHT22;9269;50.838;12.094;2024-01-07T12:24:28;1.50;51.50
18287;DHT22;9269;50.838;12.094;2024-01-07T12:27:05;1.50;51.90
18287;DHT22;9269;50.838;12.094;2024-01-07T12:29:54;1.60;52.00
18287;DHT22;9269;50.838;12.094;2024-01-07T12:32:34;1.50;51.60
18287;DHT22;9269;50.838;12.094;2024-01-07T12:35:10;1.30;51.70
18287;DHT22;9269;50.838;12.094;2024-01-07T12:37:48;1.60;51.40
18287;DHT22;9269;50.838;12.094;2024-01-07T12:40:31;1.50;51.10
18287;DHT22;9269;50.838;12.094;2024-01-07T12:43:09;1.50;50.80
18287;DHT22;9269;50.838;12.094;2024-01-07T12:45:52;1.50;50.70
18287;DHT22;9269;50.838;12.094;2024-01-07T12:48:27;1.40;50.90
18287;DHT22;9269;50.838;12.094;2024-01-07T12:51:16;1.40;50.50
18287;DHT22;9269;50.838;12.094;2024-01-07T12:53:55;1.50;50.60
18287;DHT22;9269;50.838;12.094;2024-01-07T12:56:46;1.40;50.50
18287;DHT22;9269;50.838;12.094;2024-01-07T12:59:20;1.60;50.70
18287;DHT22;9269;50.838;12.094;2024-01-07T13:02:00;1.50;50.30
18287;DHT22;9269;50.838;12.094;2024-01-07T13:04:36;1.60;50.60
18287;DHT22;9269;50.838;12.094;2024-01-07T13:07:13;1.60;50.50
18287;DHT22;9269;50.838;12.094;2024-01-07T13:09:51;1.70;49.90
18287;DHT22;9269;50.838;12.094;2024-01-07T13:12:25;1.70;50.00
18287;DHT22;9269;50.838;12.094;2024-01-07T13:15:10;1.50;49.50
18287;DHT22;9269;50.838;12.094;2024-01-07T13:17:44;1.50;49.90
18287;DHT22;9269;50.838;12.094;2024-01-07T13:20:27;1.60;49.70
18287;DHT22;9269;50.838;12.094;2024-01-07T13:23:03;1.60;49.30
18287;DHT22;9269;50.838;12.094;2024-01-07T13:25:39;1.70;49.00
18287;DHT22;9269;50.838;12.094;2024-01-07T13:28:18;1.50;48.60
18287;DHT22;9269;50.838;12.094;2024-01-07T13:30:51;1.50;48.60
18287;DHT22;9269;50.838;12.094;2024-01-07T13:33:26;1.40;47.70
18287;DHT22;9269;50.838;12.094;2024-01-07T13:36:03;1.50;47.70
18287;DHT22;9269;50.838;12.094;2024-01-07T13:38:42;1.60;47.40
18287;DHT22;9269;50.838;12.094;2024-01-07T13:41:19;1.40;47.50
18287;DHT22;9269;50.838;12.094;2024-01-07T13:43:54;1.50;47.80
18287;DHT22;9269;50.838;12.094;2024-01-07T13:46:35;1.50;47.60
18287;DHT22;9269;50.838;12.094;2024-01-07T13:49:10;1.50;47.30
18287;DHT22;9269;50.838;12.094;2024-01-07T13:51:47;1.60;47.50
18287;DHT22;9269;50.838;12.094;2024-01-07T13:54:28;1.50;47.40
18287;DHT22;9269;50.838;12.094;2024-01-07T13:57:09;1.40;46.50
18287;DHT22;9269;50.838;12.094;2024-01-07T13:59:47;1.70;46.70
18287;DHT22;9269;50.838;12.094;2024-01-07T14:02:25;1.50;47.30
18287;DHT22;9269;50.838;12.094;2024-01-07T14:05:05;1.50;47.20
18287;DHT22;9269;50.838;12.094;2024-01-07T14:07:44;1.60;47.30
18287;DHT22;9269;50.838;12.094;2024-01-07T14:10:31;1.50;46.90
18287;DHT22;9269;50.838;12.094;2024-01-07T14:13:10;1.60;46.70
18287;DHT22;9269;50.838;12.094;2024-01-07T14:15:52;1.40;46.90
18287;DHT22;9269;50.838;12.094;2024-01-07T14:18:23;1.50;47.30
18287;DHT22;9269;50.838;12.094;2024-01-07T14:21:02;1.20;47.00
18287;DHT22;9269;50.838;12.094;2024-01-07T14:23:36;1.60;47.50
18287;DHT22;9269;50.838;12.094;2024-01-07T14:26:11;1.50;47.40
18287;DHT22;9269;50.838;12.094;2024-01-07T14:28:50;1.40;47.30
18287;DHT22;9269;50.838;12.094;2024-01-07T14:31:39;1.40;47.40
18287;DHT22;9269;50.838;12.094;2024-01-07T14:34:25;1.20;48.00
18287;DHT22;9269;50.838;12.094;2024-01-07T14:37:01;1.40;47.80
18287;DHT22;9269;50.838;12.094;2024-01-07T14:39:50;1.30;48.00
18287;DHT22;9269;50.838;12.094;2024-01-07T14:42:27;1.30;47.90
18287;DHT22;9269;50.838;12.094;2024-01-07T14:45:06;1.50;48.00
18287;DHT22;9269;50.838;12.094;2024-01-07T14:47:49;1.40;48.30
18287;DHT22;9269;50.838;12.094;2024-01-07T14:50:28;1.30;48.00
18287;DHT22;9269;50.838;12.094;2024-01-07T14:53:22;1.40;48.20
18287;DHT22;9269;50.838;12.094;2024-01-07T14:56:03;1.40;48.10
18287;DHT22;9269;50.838;12.094;2024-01-07T14:58:44;1.50;47.90
18287;DHT22;9269;50.838;12.094;2024-01-07T15:01:28;1.50;48.10
18287;DHT22;9269;50.838;12.094;2024-01-07T15:04:12;1.40;48.00
18287;DHT22;9269;50.838;12.094;2024-01-07T15:06:49;1.70;47.90
18287;DHT22;9269;50.838;12.094;2024-01-07T15:09:31;1.50;47.70
18287;DHT22;9269;50.838;12.094;2024-01-07T15:12:15;1.50;47.50
18287;DHT22;9269;50.838;12.094;2024-01-07T15:14:57;1.60;47.40
18287;DHT22;9269;50.838;12.094;2024-01-07T15:17:40;1.40;47.50
18287;DHT22;9269;50.838;12.094;2024-01-07T15:20:24;1.50;47.50
18287;DHT22;9269;50.838;12.094;2024-01-07T15:23:07;1.50;47.00
18287;DHT22;9269;50.838;12.094;2024-01-07T15:25:48;1.50;47.20
18287;DHT22;9269;50.838;12.094;2024-01-07T15:28:37;1.50;46.70
18287;DHT22;9269;50.838;12.094;2024-01-07T15:31:13;1.30;46.90
18287;DHT22;9269;50.838;12.094;2024-01-07T15:33:54;1.50;47.10
18287;DHT22;9269;50.838;12.094;2024-01-07T15:36:33;1.40;47.50
18287;DHT22;9269;50.838;12.094;2024-01-07T15:39:14;1.40;47.40
18287;DHT22;9269;50.838;12.094;2024-01-07T15:41:50;1.50;47.40
18287;DHT22;9269;50.838;12.094;2024-01-07T15:44:41;1.50;47.40
18287;DHT22;9269;50.838;12.094;2024-01-07T15:47:24;1.50;47.70
18287;DHT22;9269;50.838;12.094;2024-01-07T15:49:53;1.30;47.80
18287;DHT22;9269;50.838;12.094;2024-01-07T15:52:22;1.60;47.90
18287;DHT22;9269;50.838;12.094;2024-01-07T15:54:54;1.60;47.90
18287;DHT22;9269;50.838;12.094;2024-01-07T15:57:23;1.30;48.00
18287;DHT22;9269;50.838;12.094;2024-01-07T15:59:52;1.40;48.10
18287;DHT22;9269;50.838;12.094;2024-01-07T16:02:21;1.50;47.80
18287;DHT22;9269;50.838;12.094;2024-01-07T16:04:49;1.40;48.40
18287;DHT22;9269;50.838;12.094;2024-01-07T16:07:37;1.40;48.10
18287;DHT22;9269;50.838;12.094;2024-01-07T16:10:25;1.40;47.90
18287;DHT22;9269;50.838;12.094;2024-01-07T16:12:54;1.60;48.30
18287;DHT22;9269;50.838;12.094;2024-01-07T16:15:24;1.40;48.40
18287;DHT22;9269;50.838;12.094;2024-01-07T16:17:53;1.50;48.30
18287;DHT22;9269;50.838;12.094;2024-01-07T16:20:22;1.40;48.20
18287;DHT22;9269;50.838;12.094;2024-01-07T16:22:53;1.40;48.20
18287;DHT22;9269;50.838;12.094;2024-01-07T16:25:21;1.50;48.50
18287;DHT22;9269;50.838;12.094;2024-01-07T16:27:50;1.40;49.10
18287;DHT22;9269;50.838;12.094;2024-01-07T16:30:19;1.50;48.60
18287;DHT22;9269;50.838;12.094;2024-01-07T16:32:49;1.50;48.90
18287;DHT22;9269;50.838;12.094;2024-01-07T16:35:17;1.60;49.10
18287;DHT22;9269;50.838;12.094;2024-01-07T16:37:45;1.50;48.60
18287;DHT22;9269;50.838;12.094;2024-01-07T16:40:13;1.40;48.80
18287;DHT22;9269;50.838;12.094;2024-01-07T16:42:42;1.50;48.90
18287;DHT22;9269;50.838;12.094;2024-01-07T16:45:13;1.40;49.20
18287;DHT22;9269;50.838;12.094;2024-01-07T16:47:45;1.40;49.10
18287;DHT22;9269;50.838;12.094;2024-01-07T16:50:14;1.60;49.40
18287;DHT22;9269;50.838;12.094;2024-01-07T16:52:51;1.40;49.20
18287;DHT22;9269;50.838;12.094;2024-01-07T16:55:20;1.40;49.30
18287;DHT22;9269;50.838;12.094;2024-01-07T16:57:49;1.30;49.50
18287;DHT22;9269;50.838;12.094;2024-01-07T17:00:18;1.20;49.40
18287;DHT22;9269;50.838;12.094;2024-01-07T17:02:50;1.50;49.50
18287;DHT22;9269;50.838;12.094;2024-01-07T17:05:19;1.50;49.30
18287;DHT22;9269;50.838;12.094;2024-01-07T17:07:48;1.50;49.60
18287;DHT22;9269;50.838;12.094;2024-01-07T17:10:19;1.40;49.90
18287;DHT22;9269;50.838;12.094;2024-01-07T17:12:48;1.40;50.10
18287;DHT22;9269;50.838;12.094;2024-01-07T17:15:16;1.40;50.00
18287;DHT22;9269;50.838;12.094;2024-01-07T17:17:45;1.30;50.30
18287;DHT22;9269;50.838;12.094;2024-01-07T17:20:14;1.30;50.20
18287;DHT22;9269;50.838;12.094;2024-01-07T17:22:46;1.70;49.90
18287;DHT22;9269;50.838;12.094;2024-01-07T17:25:14;1.40;50.50
18287;DHT22;9269;50.838;12.094;2024-01-07T17:27:42;1.40;50.30
18287;DHT22;9269;50.838;12.094;2024-01-07T17:30:12;1.50;50.20